sensor_id;sensor_type;location;lat;lon;timestamp;temperature;humidity
20946;DHT22;10632;51.276;7.116;2023-02-28T00:01:25;-0.40;99.90
20946;DHT22;10632;51.276;7.116;2023-02-28T00:03:52;-0.40;99.90
20946;DHT22;10632;51.276;7.116;2023-02-28T00:06:19;-0.50;99.90
20946;DHT22;10632;51.276;7.116;2023-02-28T00:08:46;-0.50;99.90
20946;DHT22;10632;51.276;7.116;2023-02-28T00:11:15;-0.40;99.90
20946;DHT22;10632;51.276;7.116;2023-02-28T00:13:44;-0.40;99.90
20946;DHT22;10632;51.276;7.116;2023-02-28T00:16:17;-0.40;99.90
20946;DHT22;10632;51.276;7.116;2023-02-28T00:18:44;-0.40;99.90
20946;DHT22;10632;51.276;7.116;2023-02-28T00:21:13;-0.40;99.90
20946;DHT22;10632;51.276;7.116;2023-02-28T00:23:42;-0.40;99.90
20946;DHT22;10632;51.276;7.116;2023-02-28T00:26:10;-0.40;99.90
20946;DHT22;10632;51.276;7.116;2023-02-28T00:28:38;-0.30;99.90
20946;DHT22;10632;51.276;7.116;2023-02-28T00:31:05;-0.30;99.90
20946;DHT22;10632;51.276;7.116;2023-02-28T00:33:32;-0.30;99.90
20946;DHT22;10632;51.276;7.116;2023-02-28T00:36:06;-0.30;99.90
20946;DHT22;10632;51.276;7.116;2023-02-28T00:38:34;-0.20;99.90
20946;DHT22;10632;51.276;7.116;2023-02-28T00:41:01;-0.20;99.90
20946;DHT22;10632;51.276;7.116;2023-02-28T00:43:34;-0.20;99.90
20946;DHT22;10632;51.276;7.116;2023-02-28T00:46:03;-0.20;99.90
20946;DHT22;10632;51.276;7.116;2023-02-28T00:48:34;-0.20;99.90
20946;DHT22;10632;51.276;7.116;2023-02-28T00:51:01;-0.20;99.90
20946;DHT22;10632;51.276;7.116;2023-02-28T00:53:29;-0.20;99.90
20946;DHT22;10632;51.276;7.116;2023-02-28T00:55:58;-0.20;99.90
20946;DHT22;10632;51.276;7.116;2023-02-28T00:58:25;-0.30;99.90
20946;DHT22;10632;51.276;7.116;2023-02-28T01:00:54;-0.20;99.90
20946;DHT22;10632;51.276;7.116;2023-02-28T01:03:22;-0.30;99.90
20946;DHT22;10632;51.276;7.116;2023-02-28T01:05:49;-0.30;99.90
20946;DHT22;10632;51.276;7.116;2023-02-28T01:08:18;-0.40;99.90
20946;DHT22;10632;51.276;7.116;2023-02-28T01:10:45;-0.40;99.90
20946;DHT22;10632;51.276;7.116;2023-02-28T01:13:13;-0.40;99.90
20946;DHT22;10632;51.276;7.116;2023-02-28T01:15:43;-0.40;99.90
20946;DHT22;10632;51.276;7.116;2023-02-28T01:18:12;-0.40;99.90
20946;DHT22;10632;51.276;7.116;2023-02-28T01:20:40;-0.50;99.90
20946;DHT22;10632;51.276;7.116;2023-02-28T01:23:07;-0.50;99.90
20946;DHT22;10632;51.276;7.116;2023-02-28T01:25:35;-0.50;99.90
20946;DHT22;10632;51.276;7.116;2023-02-28T01:28:05;-0.60;99.90
20946;DHT22;10632;51.276;7.116;2023-02-28T01:30:33;-0.60;99.90
20946;DHT22;10632;51.276;7.116;2023-02-28T01:32:59;-0.60;99.90
20946;DHT22;10632;51.276;7.116;2023-02-28T01:35:26;-0.60;99.90
20946;DHT22;10632;51.276;7.116;2023-02-28T01:37:55;-0.70;99.90
20946;DHT22;10632;51.276;7.116;2023-02-28T01:40:22;-0.70;99.90
20946;DHT22;10632;51.276;7.116;2023-02-28T01:42:49;-0.70;99.90
20946;DHT22;10632;51.276;7.116;2023-02-28T01:45:22;-0.70;99.90
20946;DHT22;10632;51.276;7.116;2023-02-28T01:47:53;-0.70;99.90
20946;DHT22;10632;51.276;7.116;2023-02-28T01:50:24;-0.70;99.90
20946;DHT22;10632;51.276;7.116;2023-02-28T01:52:55;-0.80;99.90
20946;DHT22;10632;51.276;7.116;2023-02-28T01:55:24;-0.80;99.90
20946;DHT22;10632;51.276;7.116;2023-02-28T01:57:56;-0.80;99.90
20946;DHT22;10632;51.276;7.116;2023-02-28T02:00:25;-0.80;99.90
20946;DHT22;10632;51.276;7.116;2023-02-28T02:02:59;-0.80;99.90
20946;DHT22;10632;51.276;7.116;2023-02-28T02:05:29;-0.90;99.90
20946;DHT22;10632;51.276;7.116;2023-02-28T02:08:05;-0.90;99.90
20946;DHT22;10632;51.276;7.116;2023-02-28T02:10:34;-0.90;99.90
20946;DHT22;10632;51.276;7.116;2023-02-28T02:13:26;-0.90;99.90
20946;DHT22;10632;51.276;7.116;2023-02-28T02:16:00;-0.90;99.90
20946;DHT22;10632;51.276;7.116;2023-02-28T02:18:34;-0.90;99.90
20946;DHT22;10632;51.276;7.116;2023-02-28T02:24:29;-1.00;99.90
20946;DHT22;10632;51.276;7.116;2023-02-28T02:27:14;-1.00;99.90
20946;DHT22;10632;51.276;7.116;2023-02-28T02:33:25;-1.00;99.90
20946;DHT22;10632;51.276;7.116;2023-02-28T02:36:02;-1.00;99.90
20946;DHT22;10632;51.276;7.116;2023-02-28T02:38:33;-1.00;99.90
20946;DHT22;10632;51.276;7.116;2023-02-28T02:41:09;-1.10;99.90
20946;DHT22;10632;51.276;7.116;2023-02-28T02:43:38;-1.10;99.90
20946;DHT22;10632;51.276;7.116;2023-02-28T02:46:12;-1.10;99.90
20946;DHT22;10632;51.276;7.116;2023-02-28T02:48:42;-1.10;99.90
20946;DHT22;10632;51.276;7.116;2023-02-28T02:51:15;-1.10;99.90
20946;DHT22;10632;51.276;7.116;2023-02-28T02:53:46;-1.20;99.90
20946;DHT22;10632;51.276;7.116;2023-02-28T02:56:23;-1.10;99.90
20946;DHT22;10632;51.276;7.116;2023-02-28T02:59:00;-1.10;99.90
20946;DHT22;10632;51.276;7.116;2023-02-28T03:01:29;-1.20;99.90
20946;DHT22;10632;51.276;7.116;2023-02-28T03:03:59;-1.20;99.90
20946;DHT22;10632;51.276;7.116;2023-02-28T03:06:29;-1.20;99.90
20946;DHT22;10632;51.276;7.116;2023-02-28T03:08:56;-1.20;99.90
20946;DHT22;10632;51.276;7.116;2023-02-28T03:11:26;-1.20;99.90
20946;DHT22;10632;51.276;7.116;2023-02-28T03:14:29;-1.30;99.90
20946;DHT22;10632;51.276;7.116;2023-02-28T03:17:10;-1.20;99.90
20946;DHT22;10632;51.276;7.116;2023-02-28T03:19:51;-1.30;99.90
20946;DHT22;10632;51.276;7.116;2023-02-28T03:22:45;-1.20;99.90
20946;DHT22;10632;51.276;7.116;2023-02-28T03:25:24;-1.30;99.90
20946;DHT22;10632;51.276;7.116;2023-02-28T03:27:55;-1.30;99.90
20946;DHT22;10632;51.276;7.116;2023-02-28T03:30:31;-1.30;99.90
20946;DHT22;10632;51.276;7.116;2023-02-28T03:33:05;-1.30;99.90
20946;DHT22;10632;51.276;7.116;2023-02-28T03:35:36;-1.30;99.90
20946;DHT22;10632;51.276;7.116;2023-02-28T03:38:09;-1.30;99.90
20946;DHT22;10632;51.276;7.116;2023-02-28T03:40:43;-1.30;99.90
20946;DHT22;10632;51.276;7.116;2023-02-28T03:43:18;-1.30;99.90
20946;DHT22;10632;51.276;7.116;2023-02-28T03:45:47;-1.30;99.90
20946;DHT22;10632;51.276;7.116;2023-02-28T03:48:19;-1.40;99.90
20946;DHT22;10632;51.276;7.116;2023-02-28T03:50:51;-1.40;99.90
20946;DHT22;10632;51.276;7.116;2023-02-28T03:53:25;-1.40;99.90
20946;DHT22;10632;51.276;7.116;2023-02-28T03:55:56;-1.40;99.90
20946;DHT22;10632;51.276;7.116;2023-02-28T03:58:28;-1.40;99.90
20946;DHT22;10632;51.276;7.116;2023-02-28T04:01:00;-1.40;99.90
20946;DHT22;10632;51.276;7.116;2023-02-28T04:03:34;-1.40;99.90
20946;DHT22;10632;51.276;7.116;2023-02-28T04:06:01;-1.40;99.90
20946;DHT22;10632;51.276;7.116;2023-02-28T04:08:29;-1.50;99.90
20946;DHT22;10632;51.276;7.116;2023-02-28T04:11:01;-1.50;99.90
20946;DHT22;10632;51.276;7.116;2023-02-28T04:13:29;-1.50;99.90
20946;DHT22;10632;51.276;7.116;2023-02-28T04:15:56;-1.50;99.90
20946;DHT22;10632;51.276;7.116;2023-02-28T04:18:23;-1.50;99.90
20946;DHT22;10632;51.276;7.116;2023-02-28T04:20:50;-1.50;99.90
20946;DHT22;10632;51.276;7.116;2023-02-28T04:23:17;-1.50;99.90
20946;DHT22;10632;51.276;7.116;2023-02-28T04:25:45;-1.50;99.90
20946;DHT22;10632;51.276;7.116;2023-02-28T04:28:12;-1.50;99.90
20946;DHT22;10632;51.276;7.116;2023-02-28T04:30:39;-1.50;99.90
20946;DHT22;10632;51.276;7.116;2023-02-28T04:33:06;-1.60;99.90
20946;DHT22;10632;51.276;7.116;2023-02-28T04:35:33;-1.50;99.90
20946;DHT22;10632;51.276;7.116;2023-02-28T04:37:59;-1.60;99.90
20946;DHT22;10632;51.276;7.116;2023-02-28T04:40:26;-1.60;99.90
20946;DHT22;10632;51.276;7.116;2023-02-28T04:42:55;-1.60;99.90
20946;DHT22;10632;51.276;7.116;2023-02-28T04:45:22;-1.60;99.90
20946;DHT22;10632;51.276;7.116;2023-02-28T04:47:48;-1.60;99.90
20946;DHT22;10632;51.276;7.116;2023-02-28T04:50:16;-1.60;99.90
20946;DHT22;10632;51.276;7.116;2023-02-28T04:52:43;-1.60;99.90
20946;DHT22;10632;51.276;7.116;2023-02-28T04:55:10;-1.60;99.90
20946;DHT22;10632;51.276;7.116;2023-02-28T04:57:37;-1.60;99.90
20946;DHT22;10632;51.276;7.116;2023-02-28T05:00:10;-1.60;99.90
20946;DHT22;10632;51.276;7.116;2023-02-28T05:02:38;-1.60;99.90
20946;DHT22;10632;51.276;7.116;2023-02-28T05:05:05;-1.60;99.90
20946;DHT22;10632;51.276;7.116;2023-02-28T05:07:32;-1.70;99.90
20946;DHT22;10632;51.276;7.116;2023-02-28T05:09:59;-1.70;99.90
20946;DHT22;10632;51.276;7.116;2023-02-28T05:12:26;-1.70;99.90
20946;DHT22;10632;51.276;7.116;2023-02-28T05:14:53;-1.70;99.90
20946;DHT22;10632;51.276;7.116;2023-02-28T05:17:21;-1.70;99.90
20946;DHT22;10632;51.276;7.116;2023-02-28T05:19:48;-1.70;99.90
20946;DHT22;10632;51.276;7.116;2023-02-28T05:22:16;-1.70;99.90
20946;DHT22;10632;51.276;7.116;2023-02-28T05:24:43;-1.80;99.90
20946;DHT22;10632;51.276;7.116;2023-02-28T05:27:10;-1.80;99.90
20946;DHT22;10632;51.276;7.116;2023-02-28T05:29:37;-1.80;99.90
20946;DHT22;10632;51.276;7.116;2023-02-28T05:32:11;-1.80;99.90
20946;DHT22;10632;51.276;7.116;2023-02-28T05:34:39;-1.80;99.90
20946;DHT22;10632;51.276;7.116;2023-02-28T05:37:06;-1.80;99.90
20946;DHT22;10632;51.276;7.116;2023-02-28T05:39:37;-1.80;99.90
20946;DHT22;10632;51.276;7.116;2023-02-28T05:42:04;-1.80;99.90
20946;DHT22;10632;51.276;7.116;2023-02-28T05:44:32;-1.90;99.90
20946;DHT22;10632;51.276;7.116;2023-02-28T05:46:58;-1.90;99.90
20946;DHT22;10632;51.276;7.116;2023-02-28T05:49:33;-1.90;99.90
20946;DHT22;10632;51.276;7.116;2023-02-28T05:52:01;-1.90;99.90
20946;DHT22;10632;51.276;7.116;2023-02-28T05:54:28;-1.90;99.90
20946;DHT22;10632;51.276;7.116;2023-02-28T05:56:55;-1.90;99.90
20946;DHT22;10632;51.276;7.116;2023-02-28T05:59:22;-1.90;99.90
20946;DHT22;10632;51.276;7.116;2023-02-28T06:01:50;-1.90;99.90
20946;DHT22;10632;51.276;7.116;2023-02-28T06:04:19;-1.90;99.90
20946;DHT22;10632;51.276;7.116;2023-02-28T06:06:48;-1.90;99.90
20946;DHT22;10632;51.276;7.116;2023-02-28T06:09:17;-2.00;99.90
20946;DHT22;10632;51.276;7.116;2023-02-28T06:11:44;-2.00;99.90
20946;DHT22;10632;51.276;7.116;2023-02-28T06:14:14;-2.00;99.90
20946;DHT22;10632;51.276;7.116;2023-02-28T06:16:42;-2.00;99.90
20946;DHT22;10632;51.276;7.116;2023-02-28T06:19:09;-2.00;99.90
20946;DHT22;10632;51.276;7.116;2023-02-28T06:21:36;-2.00;99.90
20946;DHT22;10632;51.276;7.116;2023-02-28T06:24:04;-2.00;99.90
20946;DHT22;10632;51.276;7.116;2023-02-28T06:26:32;-2.00;99.90
20946;DHT22;10632;51.276;7.116;2023-02-28T06:28:59;-2.10;99.90
20946;DHT22;10632;51.276;7.116;2023-02-28T06:31:27;-2.10;99.90
20946;DHT22;10632;51.276;7.116;2023-02-28T06:33:55;-2.10;99.90
20946;DHT22;10632;51.276;7.116;2023-02-28T06:36:22;-2.10;99.90
20946;DHT22;10632;51.276;7.116;2023-02-28T06:38:49;-2.10;99.90
20946;DHT22;10632;51.276;7.116;2023-02-28T06:41:21;-2.10;99.90
20946;DHT22;10632;51.276;7.116;2023-02-28T06:43:49;-2.20;99.90
20946;DHT22;10632;51.276;7.116;2023-02-28T06:46:16;-2.10;99.90
20946;DHT22;10632;51.276;7.116;2023-02-28T06:48:43;-2.20;99.90
20946;DHT22;10632;51.276;7.116;2023-02-28T06:51:13;-2.10;99.90
20946;DHT22;10632;51.276;7.116;2023-02-28T06:53:41;-2.10;99.90
20946;DHT22;10632;51.276;7.116;2023-02-28T06:56:10;-2.10;99.90
20946;DHT22;10632;51.276;7.116;2023-02-28T06:58:37;-2.10;99.90
20946;DHT22;10632;51.276;7.116;2023-02-28T07:01:08;-2.20;99.90
20946;DHT22;10632;51.276;7.116;2023-02-28T07:03:36;-2.10;99.90
20946;DHT22;10632;51.276;7.116;2023-02-28T07:06:06;-2.10;99.90
20946;DHT22;10632;51.276;7.116;2023-02-28T07:08:33;-2.10;99.90
20946;DHT22;10632;51.276;7.116;2023-02-28T07:11:00;-2.10;99.90
20946;DHT22;10632;51.276;7.116;2023-02-28T07:13:27;-2.10;99.90
20946;DHT22;10632;51.276;7.116;2023-02-28T07:15:54;-2.10;99.90
20946;DHT22;10632;51.276;7.116;2023-02-28T07:18:23;-2.00;99.90
20946;DHT22;10632;51.276;7.116;2023-02-28T07:20:50;-2.10;99.90
20946;DHT22;10632;51.276;7.116;2023-02-28T07:23:17;-2.00;99.90
20946;DHT22;10632;51.276;7.116;2023-02-28T07:25:45;-2.00;99.90
20946;DHT22;10632;51.276;7.116;2023-02-28T07:28:12;-2.10;99.90
20946;DHT22;10632;51.276;7.116;2023-02-28T07:30:39;-2.00;99.90
20946;DHT22;10632;51.276;7.116;2023-02-28T07:33:06;-1.90;99.90
20946;DHT22;10632;51.276;7.116;2023-02-28T07:35:35;-1.90;99.90
20946;DHT22;10632;51.276;7.116;2023-02-28T07:38:02;-1.90;99.90
20946;DHT22;10632;51.276;7.116;2023-02-28T07:40:30;-1.80;99.90
20946;DHT22;10632;51.276;7.116;2023-02-28T07:42:59;-1.80;99.90
20946;DHT22;10632;51.276;7.116;2023-02-28T07:45:26;-1.80;99.90
20946;DHT22;10632;51.276;7.116;2023-02-28T07:47:55;-1.70;99.90
20946;DHT22;10632;51.276;7.116;2023-02-28T07:50:22;-1.70;99.90
20946;DHT22;10632;51.276;7.116;2023-02-28T07:52:50;-1.70;99.90
20946;DHT22;10632;51.276;7.116;2023-02-28T07:55:17;-1.60;99.90
20946;DHT22;10632;51.276;7.116;2023-02-28T07:57:44;-1.60;99.90
20946;DHT22;10632;51.276;7.116;2023-02-28T08:00:12;-1.50;99.90
20946;DHT22;10632;51.276;7.116;2023-02-28T08:02:41;-1.40;99.90
20946;DHT22;10632;51.276;7.116;2023-02-28T08:05:12;-1.40;99.90
20946;DHT22;10632;51.276;7.116;2023-02-28T08:07:41;-1.40;99.90
20946;DHT22;10632;51.276;7.116;2023-02-28T08:10:10;-1.30;99.90
20946;DHT22;10632;51.276;7.116;2023-02-28T08:12:37;-1.30;99.90
20946;DHT22;10632;51.276;7.116;2023-02-28T08:15:04;-1.20;99.90
20946;DHT22;10632;51.276;7.116;2023-02-28T08:17:31;-1.20;99.90
20946;DHT22;10632;51.276;7.116;2023-02-28T08:19:58;-1.10;99.90
20946;DHT22;10632;51.276;7.116;2023-02-28T08:22:25;-1.00;99.90
20946;DHT22;10632;51.276;7.116;2023-02-28T08:24:52;-0.90;99.90
20946;DHT22;10632;51.276;7.116;2023-02-28T08:27:20;-0.90;99.90
20946;DHT22;10632;51.276;7.116;2023-02-28T08:29:50;-0.80;99.90
20946;DHT22;10632;51.276;7.116;2023-02-28T08:32:17;-0.70;99.90
20946;DHT22;10632;51.276;7.116;2023-02-28T08:34:44;-0.60;99.90
20946;DHT22;10632;51.276;7.116;2023-02-28T08:37:11;-0.50;99.90
20946;DHT22;10632;51.276;7.116;2023-02-28T08:39:38;-0.30;99.90
20946;DHT22;10632;51.276;7.116;2023-02-28T08:42:05;-0.20;99.90
20946;DHT22;10632;51.276;7.116;2023-02-28T08:44:33;-0.10;99.90
20946;DHT22;10632;51.276;7.116;2023-02-28T08:47:00;0.00;99.90
20946;DHT22;10632;51.276;7.116;2023-02-28T08:49:27;0.10;99.90
20946;DHT22;10632;51.276;7.116;2023-02-28T08:51:54;0.20;99.90
20946;DHT22;10632;51.276;7.116;2023-02-28T08:54:22;0.20;99.90
20946;DHT22;10632;51.276;7.116;2023-02-28T08:56:49;0.40;99.90
20946;DHT22;10632;51.276;7.116;2023-02-28T08:59:16;0.50;99.90
20946;DHT22;10632;51.276;7.116;2023-02-28T09:01:45;0.50;99.90
20946;DHT22;10632;51.276;7.116;2023-02-28T09:04:12;0.70;99.90
20946;DHT22;10632;51.276;7.116;2023-02-28T09:06:39;0.80;99.90
20946;DHT22;10632;51.276;7.116;2023-02-28T09:09:06;0.80;99.90
20946;DHT22;10632;51.276;7.116;2023-02-28T09:11:35;1.00;99.90
20946;DHT22;10632;51.276;7.116;2023-02-28T09:14:02;1.10;99.90
20946;DHT22;10632;51.276;7.116;2023-02-28T09:16:30;1.10;99.90
20946;DHT22;10632;51.276;7.116;2023-02-28T09:18:59;1.20;99.90
20946;DHT22;10632;51.276;7.116;2023-02-28T09:21:27;1.20;99.90
20946;DHT22;10632;51.276;7.116;2023-02-28T09:23:54;1.20;99.90
20946;DHT22;10632;51.276;7.116;2023-02-28T09:26:23;1.10;99.90
20946;DHT22;10632;51.276;7.116;2023-02-28T09:28:50;1.20;99.90
20946;DHT22;10632;51.276;7.116;2023-02-28T09:31:19;1.30;99.90
20946;DHT22;10632;51.276;7.116;2023-02-28T09:33:47;1.30;99.90
20946;DHT22;10632;51.276;7.116;2023-02-28T09:36:16;1.40;99.90
20946;DHT22;10632;51.276;7.116;2023-02-28T09:38:43;1.50;99.90
20946;DHT22;10632;51.276;7.116;2023-02-28T09:41:13;1.50;99.90
20946;DHT22;10632;51.276;7.116;2023-02-28T09:43:45;1.40;99.90
20946;DHT22;10632;51.276;7.116;2023-02-28T09:46:27;1.50;99.90
20946;DHT22;10632;51.276;7.116;2023-02-28T09:48:54;1.50;99.90
20946;DHT22;10632;51.276;7.116;2023-02-28T09:51:38;1.50;99.90
20946;DHT22;10632;51.276;7.116;2023-02-28T09:54:10;1.50;99.90
20946;DHT22;10632;51.276;7.116;2023-02-28T09:56:49;1.50;99.90
20946;DHT22;10632;51.276;7.116;2023-02-28T09:59:32;1.60;99.90
20946;DHT22;10632;51.276;7.116;2023-02-28T10:02:17;1.70;99.90
20946;DHT22;10632;51.276;7.116;2023-02-28T10:04:49;1.70;99.90
20946;DHT22;10632;51.276;7.116;2023-02-28T10:07:31;1.80;99.90
20946;DHT22;10632;51.276;7.116;2023-02-28T10:10:10;1.80;99.90
20946;DHT22;10632;51.276;7.116;2023-02-28T10:12:44;1.90;99.90
20946;DHT22;10632;51.276;7.116;2023-02-28T10:24:37;1.90;99.90
20946;DHT22;10632;51.276;7.116;2023-02-28T10:27:13;1.80;99.90
20946;DHT22;10632;51.276;7.116;2023-02-28T10:29:43;1.80;99.90
20946;DHT22;10632;51.276;7.116;2023-02-28T10:32:21;1.80;99.90
20946;DHT22;10632;51.276;7.116;2023-02-28T10:34:51;1.70;99.90
20946;DHT22;10632;51.276;7.116;2023-02-28T10:37:19;1.70;99.90
20946;DHT22;10632;51.276;7.116;2023-02-28T10:39:48;1.70;99.90
20946;DHT22;10632;51.276;7.116;2023-02-28T10:42:22;1.60;99.90
20946;DHT22;10632;51.276;7.116;2023-02-28T10:45:13;1.70;99.90
20946;DHT22;10632;51.276;7.116;2023-02-28T10:47:51;1.70;99.90
20946;DHT22;10632;51.276;7.116;2023-02-28T10:50:33;1.80;99.90
20946;DHT22;10632;51.276;7.116;2023-02-28T10:53:26;1.80;99.90
20946;DHT22;10632;51.276;7.116;2023-02-28T10:56:01;1.80;99.90
20946;DHT22;10632;51.276;7.116;2023-02-28T10:58:41;1.90;99.90
20946;DHT22;10632;51.276;7.116;2023-02-28T11:01:17;1.90;99.90
20946;DHT22;10632;51.276;7.116;2023-02-28T11:03:47;2.00;99.90
20946;DHT22;10632;51.276;7.116;2023-02-28T11:06:17;2.10;99.90
20946;DHT22;10632;51.276;7.116;2023-02-28T11:08:49;2.20;99.90
20946;DHT22;10632;51.276;7.116;2023-02-28T11:11:20;2.40;99.90
20946;DHT22;10632;51.276;7.116;2023-02-28T11:13:51;2.60;99.90
20946;DHT22;10632;51.276;7.116;2023-02-28T11:16:20;2.80;99.90
20946;DHT22;10632;51.276;7.116;2023-02-28T11:18:50;2.90;99.90
20946;DHT22;10632;51.276;7.116;2023-02-28T11:21:23;3.00;99.90
20946;DHT22;10632;51.276;7.116;2023-02-28T11:23:55;3.10;99.90
20946;DHT22;10632;51.276;7.116;2023-02-28T11:26:40;3.40;99.90
20946;DHT22;10632;51.276;7.116;2023-02-28T11:29:22;3.70;99.90
20946;DHT22;10632;51.276;7.116;2023-02-28T11:32:12;3.90;99.80
20946;DHT22;10632;51.276;7.116;2023-02-28T11:34:40;4.00;99.20
20946;DHT22;10632;51.276;7.116;2023-02-28T11:37:12;4.10;99.90
20946;DHT22;10632;51.276;7.116;2023-02-28T11:39:39;4.10;99.90
20946;DHT22;10632;51.276;7.116;2023-02-28T11:42:28;4.40;99.90
20946;DHT22;10632;51.276;7.116;2023-02-28T11:45:07;4.70;99.80
20946;DHT22;10632;51.276;7.116;2023-02-28T11:47:41;4.90;99.20
20946;DHT22;10632;51.276;7.116;2023-02-28T11:50:26;5.00;99.90
20946;DHT22;10632;51.276;7.116;2023-02-28T11:53:11;5.00;99.10
20946;DHT22;10632;51.276;7.116;2023-02-28T11:55:44;5.10;98.80
20946;DHT22;10632;51.276;7.116;2023-02-28T11:58:31;4.80;98.80
20946;DHT22;10632;51.276;7.116;2023-02-28T12:01:13;4.70;99.90
20946;DHT22;10632;51.276;7.116;2023-02-28T12:03:47;4.60;99.30
20946;DHT22;10632;51.276;7.116;2023-02-28T12:06:23;4.60;99.60
20946;DHT22;10632;51.276;7.116;2023-02-28T12:09:01;4.60;99.20
20946;DHT22;10632;51.276;7.116;2023-02-28T12:11:43;4.40;98.90
20946;DHT22;10632;51.276;7.116;2023-02-28T12:14:49;4.30;99.10
20946;DHT22;10632;51.276;7.116;2023-02-28T12:17:29;4.10;99.20
20946;DHT22;10632;51.276;7.116;2023-02-28T12:20:08;4.50;99.40
20946;DHT22;10632;51.276;7.116;2023-02-28T12:22:42;5.10;97.80
20946;DHT22;10632;51.276;7.116;2023-02-28T12:25:38;5.70;97.70
20946;DHT22;10632;51.276;7.116;2023-02-28T12:28:16;6.30;96.70
20946;DHT22;10632;51.276;7.116;2023-02-28T12:30:54;6.90;96.10
20946;DHT22;10632;51.276;7.116;2023-02-28T12:33:26;7.40;94.70
20946;DHT22;10632;51.276;7.116;2023-02-28T12:35:57;7.80;93.80
20946;DHT22;10632;51.276;7.116;2023-02-28T12:38:27;7.80;93.70
20946;DHT22;10632;51.276;7.116;2023-02-28T12:41:03;7.80;93.40
20946;DHT22;10632;51.276;7.116;2023-02-28T12:43:33;8.00;93.80
20946;DHT22;10632;51.276;7.116;2023-02-28T12:46:12;8.20;93.40
20946;DHT22;10632;51.276;7.116;2023-02-28T12:48:43;8.20;92.30
20946;DHT22;10632;51.276;7.116;2023-02-28T12:51:12;8.20;92.80
20946;DHT22;10632;51.276;7.116;2023-02-28T12:53:53;8.10;93.00
20946;DHT22;10632;51.276;7.116;2023-02-28T12:56:32;8.30;94.00
20946;DHT22;10632;51.276;7.116;2023-02-28T12:59:05;8.70;93.60
20946;DHT22;10632;51.276;7.116;2023-02-28T13:05:13;9.30;91.80
20946;DHT22;10632;51.276;7.116;2023-02-28T13:08:10;9.10;90.70
20946;DHT22;10632;51.276;7.116;2023-02-28T13:10:46;8.90;94.20
20946;DHT22;10632;51.276;7.116;2023-02-28T13:13:17;9.00;92.60
20946;DHT22;10632;51.276;7.116;2023-02-28T13:16:03;8.90;91.20
20946;DHT22;10632;51.276;7.116;2023-02-28T13:18:35;8.80;92.40
20946;DHT22;10632;51.276;7.116;2023-02-28T13:21:05;8.80;91.50
20946;DHT22;10632;51.276;7.116;2023-02-28T13:23:59;8.70;92.00
20946;DHT22;10632;51.276;7.116;2023-02-28T13:29:35;8.80;91.60
20946;DHT22;10632;51.276;7.116;2023-02-28T13:32:34;8.90;91.50
20946;DHT22;10632;51.276;7.116;2023-02-28T13:38:25;9.20;92.30
20946;DHT22;10632;51.276;7.116;2023-02-28T13:41:43;9.50;91.60
20946;DHT22;10632;51.276;7.116;2023-02-28T13:44:12;9.50;91.20
20946;DHT22;10632;51.276;7.116;2023-02-28T13:49:39;9.30;90.60
20946;DHT22;10632;51.276;7.116;2023-02-28T13:52:14;9.30;90.90
20946;DHT22;10632;51.276;7.116;2023-02-28T13:54:59;9.10;90.30
20946;DHT22;10632;51.276;7.116;2023-02-28T13:57:41;8.80;90.80
20946;DHT22;10632;51.276;7.116;2023-02-28T14:00:28;8.60;91.70
20946;DHT22;10632;51.276;7.116;2023-02-28T14:03:23;8.30;92.00
20946;DHT22;10632;51.276;7.116;2023-02-28T14:06:15;7.90;92.20
20946;DHT22;10632;51.276;7.116;2023-02-28T14:08:52;7.60;92.80
20946;DHT22;10632;51.276;7.116;2023-02-28T14:11:31;7.30;93.10
20946;DHT22;10632;51.276;7.116;2023-02-28T14:14:00;7.20;93.50
20946;DHT22;10632;51.276;7.116;2023-02-28T14:16:43;6.90;92.80
20946;DHT22;10632;51.276;7.116;2023-02-28T14:19:15;6.50;93.50
20946;DHT22;10632;51.276;7.116;2023-02-28T14:22:02;6.20;94.30
20946;DHT22;10632;51.276;7.116;2023-02-28T14:24:49;6.10;96.10
20946;DHT22;10632;51.276;7.116;2023-02-28T14:27:33;6.10;95.70
20946;DHT22;10632;51.276;7.116;2023-02-28T14:30:29;6.10;96.10
20946;DHT22;10632;51.276;7.116;2023-02-28T14:33:18;6.10;95.40
20946;DHT22;10632;51.276;7.116;2023-02-28T14:36:10;5.90;95.60
20946;DHT22;10632;51.276;7.116;2023-02-28T14:38:42;5.80;95.80
20946;DHT22;10632;51.276;7.116;2023-02-28T14:41:20;5.60;96.10
20946;DHT22;10632;51.276;7.116;2023-02-28T14:43:54;5.50;96.20
20946;DHT22;10632;51.276;7.116;2023-02-28T14:46:26;5.40;96.40
20946;DHT22;10632;51.276;7.116;2023-02-28T14:49:00;5.30;96.10
20946;DHT22;10632;51.276;7.116;2023-02-28T14:51:27;5.10;96.30
20946;DHT22;10632;51.276;7.116;2023-02-28T14:53:58;5.00;96.20
20946;DHT22;10632;51.276;7.116;2023-02-28T14:56:33;4.90;96.50
20946;DHT22;10632;51.276;7.116;2023-02-28T14:59:05;4.90;96.90
20946;DHT22;10632;51.276;7.116;2023-02-28T15:01:33;4.80;96.70
20946;DHT22;10632;51.276;7.116;2023-02-28T15:04:03;4.70;97.00
20946;DHT22;10632;51.276;7.116;2023-02-28T15:06:31;4.50;97.80
20946;DHT22;10632;51.276;7.116;2023-02-28T15:09:10;4.60;97.80
20946;DHT22;10632;51.276;7.116;2023-02-28T15:11:38;4.60;97.30
20946;DHT22;10632;51.276;7.116;2023-02-28T15:14:12;4.60;97.70
20946;DHT22;10632;51.276;7.116;2023-02-28T15:16:43;4.60;97.70
20946;DHT22;10632;51.276;7.116;2023-02-28T15:19:16;4.60;98.50
20946;DHT22;10632;51.276;7.116;2023-02-28T15:21:47;4.50;97.80
20946;DHT22;10632;51.276;7.116;2023-02-28T15:24:18;4.50;98.10
20946;DHT22;10632;51.276;7.116;2023-02-28T15:26:52;4.60;98.30
20946;DHT22;10632;51.276;7.116;2023-02-28T15:29:23;4.60;98.00
20946;DHT22;10632;51.276;7.116;2023-02-28T15:31:55;4.60;98.20
20946;DHT22;10632;51.276;7.116;2023-02-28T15:34:27;4.60;98.40
20946;DHT22;10632;51.276;7.116;2023-02-28T15:36:56;4.50;98.70
20946;DHT22;10632;51.276;7.116;2023-02-28T15:39:25;4.50;98.70
20946;DHT22;10632;51.276;7.116;2023-02-28T15:42:11;4.50;98.50
20946;DHT22;10632;51.276;7.116;2023-02-28T15:44:40;4.40;98.60
20946;DHT22;10632;51.276;7.116;2023-02-28T15:47:16;4.40;98.80
20946;DHT22;10632;51.276;7.116;2023-02-28T15:49:47;4.40;98.80
20946;DHT22;10632;51.276;7.116;2023-02-28T15:52:17;4.40;99.00
20946;DHT22;10632;51.276;7.116;2023-02-28T15:54:46;4.30;99.70
20946;DHT22;10632;51.276;7.116;2023-02-28T15:57:17;4.40;99.40
20946;DHT22;10632;51.276;7.116;2023-02-28T15:59:55;4.30;99.80
20946;DHT22;10632;51.276;7.116;2023-02-28T16:02:30;4.20;99.90
20946;DHT22;10632;51.276;7.116;2023-02-28T16:05:00;4.20;99.90
20946;DHT22;10632;51.276;7.116;2023-02-28T16:07:28;4.10;99.90
20946;DHT22;10632;51.276;7.116;2023-02-28T16:09:55;4.10;99.90
20946;DHT22;10632;51.276;7.116;2023-02-28T16:12:30;4.00;99.90
20946;DHT22;10632;51.276;7.116;2023-02-28T16:15:01;3.90;99.90
20946;DHT22;10632;51.276;7.116;2023-02-28T16:17:30;3.90;99.90
20946;DHT22;10632;51.276;7.116;2023-02-28T16:20:11;3.80;99.90
20946;DHT22;10632;51.276;7.116;2023-02-28T16:22:41;3.70;99.90
20946;DHT22;10632;51.276;7.116;2023-02-28T16:25:11;3.70;99.90
20946;DHT22;10632;51.276;7.116;2023-02-28T16:27:38;3.60;99.90
20946;DHT22;10632;51.276;7.116;2023-02-28T16:30:16;3.60;99.90
20946;DHT22;10632;51.276;7.116;2023-02-28T16:32:45;3.50;99.90
20946;DHT22;10632;51.276;7.116;2023-02-28T16:35:12;3.40;99.90
20946;DHT22;10632;51.276;7.116;2023-02-28T16:37:39;3.40;99.90